createdAt,value
2018-09-21T00:13:47.185Z,10.50
2018-09-21T00:25:06.020Z,9.27
2018-09-21T00:27:55.940Z,8.83
2018-09-21T00:47:44.235Z,6.33
2018-09-21T00:54:32.545Z,7.37
2018-09-21T01:02:18.065Z,12.50
2018-09-21T01:13:07.206Z,10.03
2018-09-21T01:15:45.369Z,7.57
2018-09-21T01:21:13.965Z,9.20
2018-09-21T01:27:50.022Z,8.98
2018-09-21T01:50:34.541Z,8.03
2018-09-21T01:54:24.593Z,6.70
2018-09-21T02:02:47.105Z,9.57
2018-09-21T02:17:12.538Z,4.23
2018-09-21T02:23:11.933Z,5.30
2018-09-21T02:26:24.606Z,7.80
2018-09-21T02:30:03.291Z,7.33
2018-09-21T02:32:40.485Z,7.33
2018-09-21T02:35:39.643Z,6.53
2018-09-21T02:39:21.719Z,7.00
2018-09-21T02:42:43.022Z,7.13
2018-09-21T02:45:40.792Z,7.60
2018-09-21T02:48:31.589Z,9.53
2018-09-21T02:54:15.291Z,6.00
2018-09-21T02:57:12.053Z,8.60
2018-09-21T03:02:51.675Z,8.47
2018-09-21T03:06:03.516Z,7.10
2018-09-21T03:08:46.283Z,9.73
2018-09-21T03:14:42.343Z,8.70
2018-09-21T03:17:32.684Z,11.20
2018-09-21T03:24:33.376Z,10.13
2018-09-21T03:27:08.926Z,10.77
2018-09-21T03:29:47.771Z,7.57
2018-09-21T03:32:37.411Z,7.47
2018-09-21T03:35:19.466Z,8.63
2018-09-21T03:40:47.821Z,7.90
2018-09-21T03:43:46.758Z,9.33
2018-09-21T03:46:28.640Z,8.27
2018-09-21T03:49:03.160Z,10.00
2018-09-21T03:51:37.510Z,9.63
2018-09-21T03:54:18.111Z,10.63
2018-09-21T03:56:57.199Z,6.97
2018-09-21T03:59:36.766Z,9.27
2018-09-21T04:02:10.979Z,5.57
2018-09-21T04:07:44.112Z,6.73
2018-09-21T04:10:19.407Z,7.13
2018-09-21T04:12:53.462Z,7.57
2018-09-21T04:15:27.810Z,6.40
2018-09-21T04:18:02.273Z,5.70
2018-09-21T04:20:36.546Z,6.80
2018-09-21T04:23:24.747Z,5.77
2018-09-21T04:25:58.788Z,6.17
2018-09-21T04:28:32.644Z,6.33
2018-09-21T04:31:06.666Z,3.83
2018-09-21T04:33:40.484Z,4.67
2018-09-21T04:36:15.450Z,5.40
2018-09-21T04:38:50.634Z,6.67
2018-09-21T04:52:49.743Z,5.83
2018-09-21T04:55:27.438Z,7.03
2018-09-21T04:58:03.191Z,6.50
2018-09-21T05:00:58.104Z,4.93
2018-09-21T05:09:56.443Z,5.47
2018-09-21T05:13:35.164Z,7.73
2018-09-21T05:16:15.591Z,5.17
2018-09-21T05:18:50.940Z,9.47
2018-09-21T05:35:16.618Z,6.97
2018-09-21T05:37:51.600Z,6.73
2018-09-21T05:44:46.321Z,6.77
2018-09-21T05:50:38.664Z,10.20
2018-09-21T05:53:17.937Z,8.73
2018-09-21T05:55:52.481Z,10.73
2018-09-21T05:58:27.125Z,14.13
2018-09-21T06:01:03.452Z,10.07
2018-09-21T06:08:06.379Z,9.43
2018-09-21T06:10:40.853Z,9.30
2018-09-21T06:13:18.912Z,9.37
2018-09-21T06:29:25.477Z,14.43
2018-09-21T06:31:59.772Z,10.03
2018-09-21T06:34:33.906Z,14.50
2018-09-21T06:37:07.965Z,13.60
2018-09-21T06:39:42.324Z,10.27
2018-09-21T06:42:16.258Z,10.60
2018-09-21T06:44:50.216Z,12.10
2018-09-21T06:47:24.140Z,11.70
2018-09-21T06:49:58.001Z,10.37
2018-09-21T06:52:32.036Z,11.80
2018-09-21T06:55:06.228Z,11.47
2018-09-21T06:57:40.405Z,12.17
2018-09-21T07:00:14.503Z,12.13
2018-09-21T07:02:48.538Z,14.23
2018-09-21T07:05:22.507Z,12.17
2018-09-21T07:08:02.531Z,17.77
2018-09-21T07:10:36.763Z,15.40
2018-09-21T07:13:10.669Z,12.97
2018-09-21T07:15:57.705Z,13.13
2018-09-21T07:18:32.754Z,12.40
2018-09-21T07:21:11.122Z,13.83
2018-09-21T07:23:45.085Z,13.07
2018-09-21T07:26:20.132Z,14.00
2018-09-21T07:28:53.989Z,13.40
2018-09-21T07:31:28.312Z,16.87
2018-09-21T07:34:02.454Z,17.80
2018-09-21T07:36:36.607Z,13.27
2018-09-21T07:39:10.542Z,13.23
2018-09-21T07:41:44.708Z,16.60
2018-09-21T07:44:18.553Z,13.83
2018-09-21T07:46:52.880Z,10.80
2018-09-21T07:49:26.706Z,10.73
2018-09-21T07:52:01.844Z,12.57
2018-09-21T07:54:35.801Z,13.27
2018-09-21T07:57:09.820Z,14.83
2018-09-21T07:59:43.574Z,10.87
2018-09-21T08:02:17.592Z,8.63
2018-09-21T08:04:51.535Z,9.37
2018-09-21T08:07:25.670Z,8.90
2018-09-21T08:10:00.003Z,12.73
2018-09-21T08:12:33.811Z,12.57
2018-09-21T08:15:07.742Z,14.90
2018-09-21T08:17:41.704Z,15.13
2018-09-21T08:20:15.766Z,10.70
2018-09-21T08:22:49.728Z,12.47
2018-09-21T08:25:24.669Z,10.13
2018-09-21T08:27:59.499Z,13.17
2018-09-21T08:30:33.268Z,8.97
2018-09-21T08:33:07.559Z,10.57
2018-09-21T08:35:41.562Z,11.97
2018-09-21T08:38:15.461Z,11.67
2018-09-21T08:40:49.284Z,10.80
2018-09-21T08:43:23.213Z,11.13
2018-09-21T08:45:57.043Z,9.60
2018-09-21T08:48:31.089Z,13.43
2018-09-21T08:51:05.216Z,10.40
2018-09-21T08:53:39.103Z,10.17
2018-09-21T08:56:12.883Z,10.37
2018-09-21T08:58:47.060Z,13.33
2018-09-21T09:01:20.868Z,12.37
2018-09-21T09:03:54.799Z,15.20
2018-09-21T09:06:28.568Z,9.77
2018-09-21T09:09:02.550Z,11.70
2018-09-21T09:11:36.541Z,10.73
2018-09-21T09:14:10.291Z,9.77
2018-09-21T09:16:44.020Z,10.37
2018-09-21T09:19:17.865Z,9.63
2018-09-21T09:21:51.864Z,11.77
2018-09-21T09:24:25.950Z,8.63
2018-09-21T09:26:59.828Z,9.90
2018-09-21T09:29:33.826Z,9.30
2018-09-21T09:32:07.876Z,10.23
2018-09-21T09:34:41.618Z,10.57
2018-09-21T09:37:15.505Z,9.53
2018-09-21T09:39:49.393Z,11.43
2018-09-21T09:42:23.677Z,13.93
2018-09-21T09:45:03.062Z,12.07
2018-09-21T09:47:37.091Z,12.37
2018-09-21T09:50:11.045Z,9.33
2018-09-21T09:52:45.010Z,10.33
2018-09-21T09:55:19.117Z,8.33
2018-09-21T09:57:53.187Z,9.67
2018-09-21T10:00:32.518Z,12.20
2018-09-21T10:03:06.323Z,9.73
2018-09-21T10:05:42.683Z,13.80
2018-09-21T10:08:16.734Z,9.77
2018-09-21T10:10:50.578Z,9.60
2018-09-21T10:13:24.404Z,10.43
2018-09-21T10:15:58.353Z,10.53
2018-09-21T10:18:32.298Z,10.07
2018-09-21T10:21:06.119Z,11.63
2018-09-21T10:23:39.894Z,12.00
2018-09-21T10:26:13.946Z,10.93
2018-09-21T10:28:47.980Z,10.73
2018-09-21T10:31:21.843Z,11.70
2018-09-21T10:33:55.620Z,12.03
2018-09-21T10:36:29.681Z,11.33
2018-09-21T10:39:03.647Z,10.40
2018-09-21T10:41:37.725Z,11.57
2018-09-21T10:44:12.065Z,12.67
2018-09-21T10:46:46.028Z,11.77
2018-09-21T10:49:19.917Z,13.57
2018-09-21T10:51:53.771Z,10.63
2018-09-21T10:54:27.795Z,12.40
2018-09-21T10:57:01.814Z,13.53
2018-09-21T10:59:35.797Z,11.20
2018-09-21T11:02:09.727Z,8.60
2018-09-21T11:04:43.647Z,11.87
2018-09-21T11:07:17.587Z,11.20
2018-09-21T11:09:51.564Z,12.17
2018-09-21T11:12:25.622Z,10.37
2018-09-21T11:14:59.720Z,11.47
2018-09-21T11:17:33.603Z,10.63
2018-09-21T11:20:07.594Z,10.50
2018-09-21T11:22:41.445Z,13.63
2018-09-21T11:25:15.435Z,12.53
2018-09-21T11:27:49.362Z,10.23
2018-09-21T11:30:23.360Z,16.03
2018-09-21T11:32:57.496Z,16.20
2018-09-21T11:35:31.475Z,11.67
2018-09-21T11:38:05.487Z,10.50
2018-09-21T11:40:39.356Z,12.90
2018-09-21T11:43:13.368Z,11.40
2018-09-21T11:45:47.361Z,8.40
2018-09-21T11:48:21.349Z,11.27
2018-09-21T11:50:55.296Z,9.63
2018-09-21T11:53:29.308Z,12.97
2018-09-21T11:56:03.077Z,11.50
2018-09-21T11:58:38.200Z,11.97
2018-09-21T12:01:12.099Z,11.13
2018-09-21T12:03:46.302Z,11.70
2018-09-21T12:06:20.296Z,15.77
2018-09-21T12:08:54.272Z,10.40
2018-09-21T12:11:28.580Z,9.17
2018-09-21T12:14:02.709Z,11.60
2018-09-21T12:16:36.694Z,9.30
2018-09-21T12:19:10.578Z,12.10
2018-09-21T12:21:44.489Z,9.30
2018-09-21T12:24:18.481Z,8.93
2018-09-21T12:26:54.046Z,9.07
2018-09-21T12:29:28.132Z,10.73
2018-09-21T12:32:01.938Z,13.53
2018-09-21T12:34:35.909Z,9.73
2018-09-21T12:37:10.220Z,7.53
2018-09-21T12:39:44.145Z,9.70
2018-09-21T12:42:18.384Z,9.93
2018-09-21T12:44:52.278Z,9.23
2018-09-21T12:47:26.153Z,9.97
2018-09-21T12:50:00.115Z,10.80
2018-09-21T12:52:34.069Z,12.00
2018-09-21T12:55:07.893Z,9.83
2018-09-21T12:57:42.009Z,11.80
2018-09-21T13:00:16.061Z,13.10
2018-09-21T13:02:50.234Z,11.63
2018-09-21T13:05:24.262Z,9.23
2018-09-21T13:07:58.310Z,13.73
2018-09-21T13:10:32.324Z,8.40
2018-09-21T13:13:06.201Z,10.67
2018-09-21T13:15:40.190Z,9.63
2018-09-21T13:18:14.412Z,10.07
2018-09-21T13:20:48.384Z,10.23
2018-09-21T13:23:22.386Z,14.27
2018-09-21T13:25:56.179Z,11.77
2018-09-21T13:28:29.943Z,11.17
2018-09-21T13:31:04.011Z,11.80
2018-09-21T13:33:38.636Z,7.97
2018-09-21T13:36:12.668Z,11.07
2018-09-21T13:38:46.594Z,13.43
2018-09-21T13:41:20.490Z,11.73
2018-09-21T13:43:54.255Z,9.57
2018-09-21T13:46:28.130Z,9.87
2018-09-21T13:49:02.091Z,12.23
2018-09-21T13:51:36.083Z,10.00
2018-09-21T13:54:09.988Z,13.80
2018-09-21T13:56:43.996Z,10.23
2018-09-21T13:59:18.276Z,13.87
2018-09-21T14:01:52.478Z,17.93
2018-09-21T14:04:26.450Z,13.67
2018-09-21T14:07:00.398Z,12.17
2018-09-21T14:09:34.195Z,16.80
2018-09-21T14:12:08.160Z,13.27
2018-09-21T14:14:42.217Z,12.90
2018-09-21T14:17:15.971Z,8.97
2018-09-21T14:19:50.112Z,13.90
2018-09-21T14:22:23.986Z,9.93
2018-09-21T14:24:57.969Z,15.37
2018-09-21T14:27:31.922Z,14.13
2018-09-21T14:30:05.842Z,15.63
2018-09-21T14:32:39.795Z,11.63
2018-09-21T14:35:13.849Z,11.80
2018-09-21T14:37:47.916Z,11.60
2018-09-21T14:40:22.042Z,11.27
2018-09-21T14:42:56.239Z,14.07
2018-09-21T14:45:30.204Z,11.93
2018-09-21T14:48:04.331Z,15.93
2018-09-21T14:50:38.407Z,11.30
2018-09-21T14:53:12.308Z,12.43
2018-09-21T14:55:46.399Z,11.00
2018-09-21T14:58:20.406Z,15.17
2018-09-21T15:00:54.214Z,14.30
2018-09-21T15:03:28.107Z,10.70
2018-09-21T15:06:01.987Z,13.37
2018-09-21T15:08:35.872Z,10.83
2018-09-21T15:11:10.010Z,11.88
2018-09-21T15:13:44.085Z,11.80
2018-09-21T15:16:17.892Z,13.07
2018-09-21T15:18:51.938Z,13.60
2018-09-21T15:21:25.792Z,10.60
2018-09-21T15:24:00.027Z,15.83
2018-09-21T15:26:33.909Z,12.17
2018-09-21T15:29:07.766Z,12.90
2018-09-21T15:31:41.997Z,12.97
2018-09-21T15:34:15.942Z,11.50
2018-09-21T15:36:50.097Z,14.03
2018-09-21T15:39:24.095Z,11.17
2018-09-21T15:41:58.156Z,16.63
2018-09-21T15:44:32.183Z,10.60
2018-09-21T15:47:06.055Z,11.70
2018-09-21T15:49:39.948Z,13.80
2018-09-21T15:52:13.847Z,11.60
2018-09-21T15:54:47.799Z,13.80
2018-09-21T15:57:21.889Z,14.83
2018-09-21T15:59:55.989Z,12.17
2018-09-21T16:02:29.973Z,13.67
2018-09-21T16:05:04.143Z,18.60
2018-09-21T16:07:38.048Z,16.07
2018-09-21T16:10:12.064Z,10.53
2018-09-21T16:12:45.786Z,12.47
2018-09-21T16:15:20.200Z,14.57
2018-09-21T16:17:54.204Z,11.13
2018-09-21T16:20:28.192Z,12.90
2018-09-21T16:23:02.170Z,14.33
2018-09-21T16:25:36.471Z,11.43
2018-09-21T16:28:10.491Z,9.33
2018-09-21T16:30:44.443Z,11.07
2018-09-21T16:33:19.309Z,14.27
2018-09-21T16:35:53.578Z,13.23
2018-09-21T16:38:27.509Z,11.70
2018-09-21T16:41:01.383Z,8.90
2018-09-21T16:43:35.421Z,9.53
2018-09-21T16:46:09.452Z,12.93
2018-09-21T16:48:43.335Z,11.13
2018-09-21T16:51:17.326Z,14.17
2018-09-21T16:53:51.062Z,9.37
2018-09-21T16:56:25.172Z,11.00
2018-09-21T16:59:00.254Z,11.43
2018-09-21T17:01:34.549Z,12.07
2018-09-21T17:04:08.360Z,9.43
2018-09-21T17:06:42.235Z,7.73
2018-09-21T17:09:16.241Z,10.90
2018-09-21T17:11:50.206Z,8.87
2018-09-21T17:14:24.190Z,6.27
2018-09-21T17:16:58.124Z,6.63
2018-09-21T17:19:32.019Z,7.03
2018-09-21T17:22:06.033Z,7.27
2018-09-21T17:24:39.853Z,4.70
2018-09-21T17:27:13.957Z,7.13
2018-09-21T17:29:47.745Z,3.20
2018-09-21T17:32:21.711Z,4.33
2018-09-21T17:34:55.514Z,4.50
2018-09-21T17:37:29.510Z,2.23
2018-09-21T17:40:03.512Z,0.97
2018-09-21T17:42:37.326Z,4.60
2018-09-21T17:45:11.240Z,1.37
2018-09-21T17:47:45.299Z,1.73
2018-09-21T17:50:19.357Z,1.37
2018-09-21T17:52:53.216Z,1.17
2018-09-21T17:55:27.275Z,1.50
2018-09-21T17:58:01.118Z,1.93
2018-09-21T18:00:34.992Z,1.20
2018-09-21T18:03:08.870Z,1.13
2018-09-21T18:05:42.839Z,0.90
2018-09-21T18:08:16.615Z,1.87
2018-09-21T18:10:50.514Z,2.20
2018-09-21T18:13:24.460Z,0.93
2018-09-21T18:15:58.491Z,0.97
2018-09-21T18:18:32.467Z,2.17
2018-09-21T18:21:06.348Z,1.20
2018-09-21T18:23:40.177Z,2.60
2018-09-21T18:26:14.169Z,2.53
2018-09-21T18:28:47.970Z,3.17
2018-09-21T18:31:22.055Z,3.17
2018-09-21T18:33:55.943Z,5.13
2018-09-21T18:36:29.798Z,5.03
2018-09-21T18:39:05.021Z,5.30
2018-09-21T18:41:38.859Z,5.27
2018-09-21T18:44:19.349Z,7.10
2018-09-21T18:46:53.230Z,3.30
2018-09-21T18:49:27.153Z,6.13
2018-09-21T18:52:01.449Z,7.10
2018-09-21T18:54:35.380Z,4.43
2018-09-21T18:57:09.441Z,6.63
2018-09-21T18:59:43.459Z,6.93
2018-09-21T19:02:17.571Z,6.70
2018-09-21T19:04:51.686Z,5.97
2018-09-21T19:07:31.480Z,4.40
2018-09-21T19:10:05.577Z,3.53
2018-09-21T19:12:39.680Z,5.00
2018-09-21T19:15:13.545Z,3.53
2018-09-21T19:17:47.523Z,3.97
2018-09-21T19:20:21.427Z,5.10
2018-09-21T19:22:55.443Z,4.47
2018-09-21T19:25:29.344Z,5.33
2018-09-21T19:28:04.228Z,5.27
2018-09-21T19:30:38.401Z,5.23
2018-09-21T19:33:12.400Z,3.23
2018-09-21T19:35:46.256Z,4.67
2018-09-21T19:38:20.226Z,3.57
2018-09-21T19:40:54.136Z,3.27
2018-09-21T19:43:28.409Z,4.13
2018-09-21T19:46:02.308Z,4.70
2018-09-21T19:48:36.327Z,3.40
2018-09-21T19:51:10.199Z,2.53
2018-09-21T19:53:44.168Z,4.03
2018-09-21T19:56:18.099Z,1.90
2018-09-21T19:58:51.973Z,4.27
2018-09-21T20:01:26.223Z,3.80
2018-09-21T20:04:02.259Z,2.97
2018-09-21T20:06:37.717Z,4.00
2018-09-21T20:09:13.668Z,4.57
2018-09-21T20:11:58.011Z,3.63
2018-09-21T20:14:32.106Z,2.97
2018-09-21T20:17:07.293Z,3.80
2018-09-21T20:19:41.456Z,5.50
2018-09-21T20:22:15.634Z,5.23
2018-09-21T20:27:53.136Z,4.53
2018-09-21T20:30:33.071Z,3.70
2018-09-21T20:33:23.644Z,3.73
2018-09-21T20:38:07.877Z,3.93
2018-09-21T20:40:44.469Z,4.50
2018-09-21T20:46:17.682Z,5.73
2018-09-21T20:52:07.834Z,3.83
2018-09-21T20:54:43.832Z,3.73
2018-09-21T20:57:31.949Z,4.63
2018-09-21T21:03:15.593Z,5.47
2018-09-21T21:05:51.379Z,4.30
2018-09-21T21:08:36.713Z,4.63
2018-09-21T21:11:17.924Z,3.77
2018-09-21T21:13:54.034Z,6.03
2018-09-21T21:16:30.618Z,6.40
2018-09-21T21:19:05.037Z,5.23
2018-09-21T21:24:36.336Z,4.73
2018-09-21T21:27:11.327Z,4.47
2018-09-21T21:29:49.038Z,5.27
2018-09-21T21:32:24.058Z,4.67
2018-09-21T21:35:00.545Z,5.17
2018-09-21T21:37:39.766Z,4.97
2018-09-21T21:43:11.016Z,4.70
2018-09-21T21:45:54.976Z,5.17
2018-09-21T21:48:38.606Z,5.23
2018-09-21T21:51:14.048Z,5.43
2018-09-21T21:57:39.438Z,6.63
2018-09-21T22:00:33.967Z,6.67
2018-09-21T22:03:16.227Z,5.10
2018-09-21T22:05:54.577Z,4.80
2018-09-21T22:08:31.480Z,6.20
2018-09-21T22:11:12.040Z,5.67
2018-09-21T22:13:51.964Z,6.33
2018-09-21T22:16:34.161Z,7.23
2018-09-21T22:19:10.011Z,8.60
2018-09-21T22:22:52.902Z,9.23
2018-09-21T22:25:28.882Z,7.93
2018-09-21T22:28:03.808Z,4.77
2018-09-21T22:30:39.843Z,5.43
2018-09-21T22:33:15.418Z,7.33
2018-09-21T22:35:50.804Z,4.67
2018-09-21T22:39:28.742Z,7.20
2018-09-21T22:42:03.589Z,8.97
2018-09-21T22:44:38.004Z,6.27
2018-09-21T22:47:13.729Z,7.20
2018-09-21T22:49:48.680Z,5.40
2018-09-21T22:52:23.371Z,7.67
2018-09-21T22:54:59.345Z,7.73
2018-09-21T22:57:37.242Z,7.20
2018-09-21T23:00:16.612Z,11.03
2018-09-21T23:02:51.200Z,7.43
2018-09-21T23:05:26.139Z,8.57
2018-09-21T23:08:06.085Z,6.83
2018-09-21T23:10:47.310Z,8.83
2018-09-21T23:13:21.989Z,7.10
2018-09-21T23:16:00.095Z,10.00
2018-09-21T23:19:05.525Z,7.33
2018-09-21T23:21:40.440Z,8.20
2018-09-21T23:24:15.169Z,9.73
2018-09-21T23:26:55.948Z,5.80
2018-09-21T23:29:36.931Z,9.13
2018-09-21T23:32:12.057Z,9.50
2018-09-21T23:34:54.355Z,8.80
2018-09-21T23:37:28.802Z,8.83
2018-09-21T23:40:03.586Z,7.87
2018-09-21T23:42:38.438Z,6.93
2018-09-21T23:45:14.185Z,11.20
2018-09-21T23:47:54.417Z,7.57
2018-09-21T23:50:29.274Z,12.40
2018-09-21T23:53:05.833Z,8.93
2018-09-21T23:55:40.366Z,10.77
2018-09-21T23:58:20.266Z,6.73
